sensor_id;sensor_type;location;lat;lon;timestamp;pressure;altitude;pressure_sealevel;temperature;humidity
60976;BME280;46849;48.154;17.042;2022-11-13T00:02:25;100274.78;;;8.83;100.00
60976;BME280;46849;48.154;17.042;2022-11-13T00:05:28;100281.94;;;8.78;100.00
60976;BME280;46849;48.154;17.042;2022-11-13T00:08:31;100269.63;;;8.81;100.00
60976;BME280;46849;48.154;17.042;2022-11-13T00:11:34;100276.44;;;8.34;100.00
60976;BME280;46849;48.154;17.042;2022-11-13T00:14:39;100273.16;;;8.29;100.00
60976;BME280;46849;48.154;17.042;2022-11-13T00:17:42;100269.66;;;8.30;100.00
60976;BME280;46849;48.154;17.042;2022-11-13T00:20:46;100278.84;;;8.15;100.00
60976;BME280;46849;48.154;17.042;2022-11-13T00:23:50;100277.88;;;8.18;100.00
60976;BME280;46849;48.154;17.042;2022-11-13T00:26:53;100274.94;;;8.53;100.00
60976;BME280;46849;48.154;17.042;2022-11-13T00:29:57;100279.13;;;8.33;100.00
60976;BME280;46849;48.154;17.042;2022-11-13T00:33:00;100288.47;;;7.87;100.00
60976;BME280;46849;48.154;17.042;2022-11-13T00:36:06;100281.09;;;7.73;100.00
60976;BME280;46849;48.154;17.042;2022-11-13T00:39:10;100286.59;;;8.18;100.00
60976;BME280;46849;48.154;17.042;2022-11-13T00:42:15;100292.78;;;7.88;100.00
60976;BME280;46849;48.154;17.042;2022-11-13T00:45:19;100289.34;;;8.13;100.00
60976;BME280;46849;48.154;17.042;2022-11-13T00:48:23;100293.56;;;8.18;100.00
60976;BME280;46849;48.154;17.042;2022-11-13T00:51:26;100291.03;;;8.14;100.00
60976;BME280;46849;48.154;17.042;2022-11-13T00:54:30;100283.66;;;8.28;100.00
60976;BME280;46849;48.154;17.042;2022-11-13T00:57:35;100279.50;;;8.22;100.00
60976;BME280;46849;48.154;17.042;2022-11-13T01:00:39;100273.88;;;8.60;100.00
60976;BME280;46849;48.154;17.042;2022-11-13T01:03:45;100277.53;;;8.29;100.00
60976;BME280;46849;48.154;17.042;2022-11-13T01:06:53;100275.47;;;7.86;100.00
60976;BME280;46849;48.154;17.042;2022-11-13T01:09:58;100280.88;;;8.07;100.00
60976;BME280;46849;48.154;17.042;2022-11-13T01:13:02;100276.50;;;7.80;100.00
60976;BME280;46849;48.154;17.042;2022-11-13T01:16:07;100268.84;;;8.03;100.00
60976;BME280;46849;48.154;17.042;2022-11-13T01:19:11;100281.09;;;8.26;100.00
60976;BME280;46849;48.154;17.042;2022-11-13T01:22:14;100278.13;;;8.37;100.00
60976;BME280;46849;48.154;17.042;2022-11-13T01:25:17;100274.31;;;8.46;100.00
60976;BME280;46849;48.154;17.042;2022-11-13T01:28:44;100278.06;;;8.38;100.00
60976;BME280;46849;48.154;17.042;2022-11-13T01:31:52;100274.44;;;8.17;100.00
60976;BME280;46849;48.154;17.042;2022-11-13T01:34:55;100272.72;;;7.91;100.00
60976;BME280;46849;48.154;17.042;2022-11-13T01:38:00;100275.69;;;8.31;100.00
60976;BME280;46849;48.154;17.042;2022-11-13T01:41:04;100269.38;;;8.12;100.00
60976;BME280;46849;48.154;17.042;2022-11-13T01:44:12;100267.56;;;8.14;100.00
60976;BME280;46849;48.154;17.042;2022-11-13T01:47:16;100269.25;;;7.90;100.00
60976;BME280;46849;48.154;17.042;2022-11-13T01:50:20;100271.25;;;7.82;100.00
60976;BME280;46849;48.154;17.042;2022-11-13T01:53:25;100265.69;;;8.18;100.00
60976;BME280;46849;48.154;17.042;2022-11-13T01:56:32;100250.53;;;8.54;100.00
60976;BME280;46849;48.154;17.042;2022-11-13T01:59:40;100253.34;;;7.98;100.00
60976;BME280;46849;48.154;17.042;2022-11-13T02:02:45;100253.59;;;8.41;100.00
60976;BME280;46849;48.154;17.042;2022-11-13T02:05:49;100247.66;;;8.85;100.00
60976;BME280;46849;48.154;17.042;2022-11-13T02:08:53;100247.47;;;8.68;100.00
60976;BME280;46849;48.154;17.042;2022-11-13T02:11:57;100249.34;;;7.87;100.00
60976;BME280;46849;48.154;17.042;2022-11-13T02:15:08;100248.31;;;7.92;100.00
60976;BME280;46849;48.154;17.042;2022-11-13T02:18:12;100253.75;;;8.36;100.00
60976;BME280;46849;48.154;17.042;2022-11-13T02:21:26;100242.84;;;7.99;100.00
60976;BME280;46849;48.154;17.042;2022-11-13T02:24:39;100249.34;;;8.13;100.00
60976;BME280;46849;48.154;17.042;2022-11-13T02:27:47;100238.25;;;8.06;100.00
60976;BME280;46849;48.154;17.042;2022-11-13T02:30:53;100234.78;;;8.31;100.00
60976;BME280;46849;48.154;17.042;2022-11-13T02:33:57;100234.44;;;7.37;100.00
60976;BME280;46849;48.154;17.042;2022-11-13T02:37:00;100237.91;;;7.64;100.00
60976;BME280;46849;48.154;17.042;2022-11-13T02:40:04;100230.59;;;8.51;100.00
60976;BME280;46849;48.154;17.042;2022-11-13T02:43:08;100236.28;;;7.87;100.00
60976;BME280;46849;48.154;17.042;2022-11-13T02:46:14;100224.63;;;7.98;100.00
60976;BME280;46849;48.154;17.042;2022-11-13T02:49:29;100229.16;;;8.68;100.00
60976;BME280;46849;48.154;17.042;2022-11-13T02:52:35;100236.59;;;8.55;100.00
60976;BME280;46849;48.154;17.042;2022-11-13T02:55:38;100235.69;;;8.30;100.00
60976;BME280;46849;48.154;17.042;2022-11-13T02:58:44;100225.44;;;8.49;100.00
60976;BME280;46849;48.154;17.042;2022-11-13T03:01:49;100229.56;;;8.31;100.00
60976;BME280;46849;48.154;17.042;2022-11-13T03:04:53;100228.53;;;8.61;100.00
60976;BME280;46849;48.154;17.042;2022-11-13T03:07:57;100228.16;;;8.46;100.00
60976;BME280;46849;48.154;17.042;2022-11-13T03:11:06;100225.19;;;8.81;100.00
60976;BME280;46849;48.154;17.042;2022-11-13T03:14:10;100219.97;;;8.81;100.00
60976;BME280;46849;48.154;17.042;2022-11-13T03:17:13;100225.34;;;8.77;100.00
60976;BME280;46849;48.154;17.042;2022-11-13T03:20:17;100218.41;;;8.52;100.00
60976;BME280;46849;48.154;17.042;2022-11-13T03:23:21;100222.59;;;8.06;100.00
60976;BME280;46849;48.154;17.042;2022-11-13T03:26:25;100218.38;;;8.28;100.00
60976;BME280;46849;48.154;17.042;2022-11-13T03:29:30;100222.44;;;8.11;100.00
60976;BME280;46849;48.154;17.042;2022-11-13T03:32:45;100207.16;;;8.49;100.00
60976;BME280;46849;48.154;17.042;2022-11-13T03:36:00;100212.19;;;8.54;100.00
60976;BME280;46849;48.154;17.042;2022-11-13T03:39:03;100213.94;;;8.30;100.00
60976;BME280;46849;48.154;17.042;2022-11-13T03:42:09;100206.56;;;8.17;100.00
60976;BME280;46849;48.154;17.042;2022-11-13T03:45:13;100197.09;;;8.38;100.00
60976;BME280;46849;48.154;17.042;2022-11-13T03:48:16;100203.78;;;8.71;100.00
60976;BME280;46849;48.154;17.042;2022-11-13T03:51:28;100201.56;;;8.60;100.00
60976;BME280;46849;48.154;17.042;2022-11-13T03:54:31;100188.84;;;8.97;100.00
60976;BME280;46849;48.154;17.042;2022-11-13T03:57:34;100193.00;;;8.31;100.00
60976;BME280;46849;48.154;17.042;2022-11-13T04:00:41;100187.16;;;8.24;100.00
60976;BME280;46849;48.154;17.042;2022-11-13T04:03:45;100187.47;;;8.65;100.00
60976;BME280;46849;48.154;17.042;2022-11-13T04:06:49;100191.16;;;8.59;100.00
60976;BME280;46849;48.154;17.042;2022-11-13T04:09:52;100178.13;;;9.26;100.00
60976;BME280;46849;48.154;17.042;2022-11-13T04:12:55;100186.19;;;8.51;100.00
60976;BME280;46849;48.154;17.042;2022-11-13T04:15:58;100184.69;;;8.45;100.00
60976;BME280;46849;48.154;17.042;2022-11-13T04:19:04;100176.38;;;8.34;100.00
60976;BME280;46849;48.154;17.042;2022-11-13T04:22:07;100186.91;;;8.07;100.00
60976;BME280;46849;48.154;17.042;2022-11-13T04:25:11;100185.44;;;8.47;100.00
60976;BME280;46849;48.154;17.042;2022-11-13T04:28:14;100182.06;;;8.45;100.00
60976;BME280;46849;48.154;17.042;2022-11-13T04:31:17;100192.78;;;7.88;100.00
60976;BME280;46849;48.154;17.042;2022-11-13T04:34:20;100195.66;;;8.06;100.00
60976;BME280;46849;48.154;17.042;2022-11-13T04:37:24;100184.72;;;8.20;100.00
60976;BME280;46849;48.154;17.042;2022-11-13T04:40:27;100184.94;;;8.63;100.00
60976;BME280;46849;48.154;17.042;2022-11-13T04:43:35;100189.03;;;8.21;100.00
60976;BME280;46849;48.154;17.042;2022-11-13T04:46:38;100191.91;;;8.13;100.00
60976;BME280;46849;48.154;17.042;2022-11-13T04:49:42;100186.78;;;8.35;100.00
60976;BME280;46849;48.154;17.042;2022-11-13T04:52:45;100184.94;;;8.37;100.00
60976;BME280;46849;48.154;17.042;2022-11-13T04:55:48;100181.84;;;8.02;100.00
60976;BME280;46849;48.154;17.042;2022-11-13T04:58:53;100189.19;;;7.65;100.00
60976;BME280;46849;48.154;17.042;2022-11-13T05:01:57;100201.59;;;7.84;100.00
60976;BME280;46849;48.154;17.042;2022-11-13T05:05:01;100197.13;;;7.87;100.00
60976;BME280;46849;48.154;17.042;2022-11-13T05:08:06;100197.09;;;7.63;100.00
60976;BME280;46849;48.154;17.042;2022-11-13T05:11:10;100191.28;;;7.81;100.00
60976;BME280;46849;48.154;17.042;2022-11-13T05:14:13;100194.63;;;8.59;100.00
60976;BME280;46849;48.154;17.042;2022-11-13T05:17:16;100198.75;;;8.41;100.00
60976;BME280;46849;48.154;17.042;2022-11-13T05:20:20;100200.28;;;8.47;100.00
60976;BME280;46849;48.154;17.042;2022-11-13T05:23:23;100205.06;;;8.83;100.00
60976;BME280;46849;48.154;17.042;2022-11-13T05:26:26;100203.75;;;8.47;100.00
60976;BME280;46849;48.154;17.042;2022-11-13T05:29:30;100214.44;;;8.16;100.00
60976;BME280;46849;48.154;17.042;2022-11-13T05:32:33;100208.97;;;8.47;100.00
60976;BME280;46849;48.154;17.042;2022-11-13T05:35:38;100209.81;;;8.48;100.00
60976;BME280;46849;48.154;17.042;2022-11-13T05:38:43;100213.66;;;8.13;100.00
60976;BME280;46849;48.154;17.042;2022-11-13T05:41:46;100201.59;;;8.35;100.00
60976;BME280;46849;48.154;17.042;2022-11-13T05:44:50;100210.34;;;7.83;100.00
60976;BME280;46849;48.154;17.042;2022-11-13T05:47:53;100214.22;;;7.71;100.00
60976;BME280;46849;48.154;17.042;2022-11-13T05:51:14;100206.44;;;7.69;100.00
60976;BME280;46849;48.154;17.042;2022-11-13T05:54:18;100204.16;;;7.33;100.00
60976;BME280;46849;48.154;17.042;2022-11-13T05:57:21;100206.22;;;8.03;100.00
60976;BME280;46849;48.154;17.042;2022-11-13T06:00:25;100206.91;;;8.06;100.00
60976;BME280;46849;48.154;17.042;2022-11-13T06:03:31;100211.28;;;7.80;100.00
60976;BME280;46849;48.154;17.042;2022-11-13T06:06:34;100207.72;;;7.57;100.00
60976;BME280;46849;48.154;17.042;2022-11-13T06:09:38;100207.16;;;8.00;100.00
60976;BME280;46849;48.154;17.042;2022-11-13T06:12:42;100206.91;;;8.32;100.00
60976;BME280;46849;48.154;17.042;2022-11-13T06:15:45;100211.50;;;7.74;100.00
60976;BME280;46849;48.154;17.042;2022-11-13T06:18:59;100210.84;;;7.13;100.00
60976;BME280;46849;48.154;17.042;2022-11-13T06:22:10;100217.50;;;7.50;100.00
60976;BME280;46849;48.154;17.042;2022-11-13T06:25:27;100208.06;;;7.73;100.00
60976;BME280;46849;48.154;17.042;2022-11-13T06:28:32;100213.84;;;7.82;100.00
60976;BME280;46849;48.154;17.042;2022-11-13T06:31:38;100211.44;;;8.03;100.00
60976;BME280;46849;48.154;17.042;2022-11-13T06:34:41;100219.13;;;7.80;100.00
60976;BME280;46849;48.154;17.042;2022-11-13T06:37:44;100211.53;;;7.99;100.00
60976;BME280;46849;48.154;17.042;2022-11-13T06:40:47;100216.44;;;7.82;100.00
60976;BME280;46849;48.154;17.042;2022-11-13T06:43:52;100210.19;;;7.87;100.00
60976;BME280;46849;48.154;17.042;2022-11-13T06:46:56;100207.38;;;7.12;100.00
60976;BME280;46849;48.154;17.042;2022-11-13T06:49:59;100212.50;;;6.87;100.00
60976;BME280;46849;48.154;17.042;2022-11-13T06:53:03;100219.19;;;7.24;100.00
60976;BME280;46849;48.154;17.042;2022-11-13T06:56:08;100220.66;;;8.11;100.00
60976;BME280;46849;48.154;17.042;2022-11-13T06:59:16;100220.84;;;7.81;100.00
60976;BME280;46849;48.154;17.042;2022-11-13T07:02:19;100224.47;;;8.03;100.00
60976;BME280;46849;48.154;17.042;2022-11-13T07:05:22;100217.59;;;8.25;100.00
60976;BME280;46849;48.154;17.042;2022-11-13T07:08:26;100214.16;;;7.99;100.00
60976;BME280;46849;48.154;17.042;2022-11-13T07:11:29;100213.59;;;8.15;100.00
60976;BME280;46849;48.154;17.042;2022-11-13T07:14:32;100218.72;;;7.93;100.00
60976;BME280;46849;48.154;17.042;2022-11-13T07:17:37;100218.34;;;8.77;100.00
60976;BME280;46849;48.154;17.042;2022-11-13T07:20:40;100214.13;;;8.25;100.00
60976;BME280;46849;48.154;17.042;2022-11-13T07:23:47;100208.78;;;8.78;100.00
60976;BME280;46849;48.154;17.042;2022-11-13T07:26:52;100206.13;;;8.30;100.00
60976;BME280;46849;48.154;17.042;2022-11-13T07:29:56;100200.34;;;8.45;100.00
60976;BME280;46849;48.154;17.042;2022-11-13T07:33:03;100203.63;;;8.26;100.00
60976;BME280;46849;48.154;17.042;2022-11-13T07:36:09;100216.94;;;7.93;100.00
60976;BME280;46849;48.154;17.042;2022-11-13T07:39:12;100212.84;;;7.60;100.00
60976;BME280;46849;48.154;17.042;2022-11-13T07:42:15;100214.91;;;8.01;100.00
60976;BME280;46849;48.154;17.042;2022-11-13T07:45:22;100214.81;;;8.54;100.00
60976;BME280;46849;48.154;17.042;2022-11-13T07:48:27;100222.00;;;8.23;100.00
60976;BME280;46849;48.154;17.042;2022-11-13T07:51:30;100230.72;;;7.44;100.00
60976;BME280;46849;48.154;17.042;2022-11-13T07:54:35;100226.47;;;7.42;100.00
60976;BME280;46849;48.154;17.042;2022-11-13T07:57:43;100224.59;;;7.72;100.00
60976;BME280;46849;48.154;17.042;2022-11-13T08:00:59;100219.03;;;8.09;100.00
60976;BME280;46849;48.154;17.042;2022-11-13T08:04:02;100229.00;;;7.97;100.00
60976;BME280;46849;48.154;17.042;2022-11-13T08:07:06;100226.38;;;7.72;100.00
60976;BME280;46849;48.154;17.042;2022-11-13T08:10:10;100228.25;;;7.94;100.00
60976;BME280;46849;48.154;17.042;2022-11-13T08:13:13;100241.19;;;8.72;100.00
60976;BME280;46849;48.154;17.042;2022-11-13T08:16:16;100225.69;;;9.36;100.00
60976;BME280;46849;48.154;17.042;2022-11-13T08:19:20;100232.25;;;9.90;100.00
60976;BME280;46849;48.154;17.042;2022-11-13T08:22:23;100231.25;;;9.28;100.00
60976;BME280;46849;48.154;17.042;2022-11-13T08:25:30;100236.88;;;8.21;100.00
60976;BME280;46849;48.154;17.042;2022-11-13T08:28:34;100233.66;;;8.38;100.00
60976;BME280;46849;48.154;17.042;2022-11-13T08:31:38;100240.84;;;8.06;100.00
60976;BME280;46849;48.154;17.042;2022-11-13T08:34:43;100239.09;;;7.81;100.00
60976;BME280;46849;48.154;17.042;2022-11-13T08:37:46;100232.44;;;7.45;100.00
60976;BME280;46849;48.154;17.042;2022-11-13T08:40:50;100232.63;;;7.39;100.00
60976;BME280;46849;48.154;17.042;2022-11-13T08:43:54;100226.06;;;6.98;100.00
60976;BME280;46849;48.154;17.042;2022-11-13T08:46:57;100235.84;;;7.19;100.00
60976;BME280;46849;48.154;17.042;2022-11-13T08:50:03;100231.03;;;7.06;100.00
60976;BME280;46849;48.154;17.042;2022-11-13T08:53:10;100241.28;;;7.68;100.00
60976;BME280;46849;48.154;17.042;2022-11-13T08:56:14;100231.50;;;7.19;100.00
60976;BME280;46849;48.154;17.042;2022-11-13T08:59:17;100232.34;;;8.01;100.00
60976;BME280;46849;48.154;17.042;2022-11-13T09:02:22;100236.81;;;8.23;100.00
60976;BME280;46849;48.154;17.042;2022-11-13T09:05:27;100233.34;;;8.72;100.00
60976;BME280;46849;48.154;17.042;2022-11-13T09:08:31;100228.06;;;8.73;100.00
60976;BME280;46849;48.154;17.042;2022-11-13T09:11:36;100233.56;;;7.91;100.00
60976;BME280;46849;48.154;17.042;2022-11-13T09:14:41;100231.38;;;8.29;100.00
60976;BME280;46849;48.154;17.042;2022-11-13T09:17:45;100233.19;;;9.01;100.00
60976;BME280;46849;48.154;17.042;2022-11-13T09:20:49;100242.09;;;9.83;100.00
60976;BME280;46849;48.154;17.042;2022-11-13T09:23:53;100231.06;;;9.33;100.00
60976;BME280;46849;48.154;17.042;2022-11-13T09:26:56;100234.88;;;9.46;100.00
60976;BME280;46849;48.154;17.042;2022-11-13T09:30:00;100225.34;;;9.01;100.00
60976;BME280;46849;48.154;17.042;2022-11-13T09:33:04;100231.78;;;9.80;100.00
60976;BME280;46849;48.154;17.042;2022-11-13T09:36:13;100230.22;;;9.53;100.00
60976;BME280;46849;48.154;17.042;2022-11-13T09:39:16;100224.59;;;8.97;100.00
60976;BME280;46849;48.154;17.042;2022-11-13T09:42:23;100236.50;;;8.58;100.00
60976;BME280;46849;48.154;17.042;2022-11-13T09:45:29;100235.13;;;8.71;100.00
60976;BME280;46849;48.154;17.042;2022-11-13T09:48:36;100236.94;;;9.81;100.00
60976;BME280;46849;48.154;17.042;2022-11-13T09:51:50;100245.97;;;10.57;99.34
60976;BME280;46849;48.154;17.042;2022-11-13T09:54:54;100244.44;;;9.68;97.46
60976;BME280;46849;48.154;17.042;2022-11-13T09:58:06;100242.25;;;9.36;100.00
60976;BME280;46849;48.154;17.042;2022-11-13T10:01:25;100233.75;;;8.85;100.00
60976;BME280;46849;48.154;17.042;2022-11-13T10:08:13;100220.91;;;8.79;100.00
60976;BME280;46849;48.154;17.042;2022-11-13T10:14:43;100216.00;;;8.93;100.00
60976;BME280;46849;48.154;17.042;2022-11-13T10:17:51;100213.59;;;8.15;100.00
60976;BME280;46849;48.154;17.042;2022-11-13T10:20:58;100209.81;;;9.41;100.00
60976;BME280;46849;48.154;17.042;2022-11-13T10:24:15;100199.00;;;9.05;100.00
60976;BME280;46849;48.154;17.042;2022-11-13T10:27:19;100202.84;;;9.62;100.00
60976;BME280;46849;48.154;17.042;2022-11-13T10:30:22;100201.28;;;9.58;99.76
60976;BME280;46849;48.154;17.042;2022-11-13T10:33:26;100177.91;;;9.10;100.00
60976;BME280;46849;48.154;17.042;2022-11-13T10:36:47;100186.81;;;9.04;100.00
60976;BME280;46849;48.154;17.042;2022-11-13T10:39:54;100179.53;;;9.35;100.00
60976;BME280;46849;48.154;17.042;2022-11-13T10:46:21;100172.75;;;10.33;97.13
60976;BME280;46849;48.154;17.042;2022-11-13T10:49:27;100167.34;;;10.57;93.27
60976;BME280;46849;48.154;17.042;2022-11-13T10:52:44;100163.50;;;8.99;100.00
60976;BME280;46849;48.154;17.042;2022-11-13T10:55:51;100165.47;;;9.58;98.13
60976;BME280;46849;48.154;17.042;2022-11-13T10:59:19;100161.53;;;9.05;99.96
60976;BME280;46849;48.154;17.042;2022-11-13T11:02:25;100149.41;;;9.04;99.77
60976;BME280;46849;48.154;17.042;2022-11-13T11:05:29;100145.00;;;9.27;100.00
60976;BME280;46849;48.154;17.042;2022-11-13T11:08:34;100135.03;;;9.97;97.33
60976;BME280;46849;48.154;17.042;2022-11-13T11:11:38;100133.81;;;10.26;96.84
60976;BME280;46849;48.154;17.042;2022-11-13T11:15:15;100125.38;;;8.47;100.00
60976;BME280;46849;48.154;17.042;2022-11-13T11:21:34;100122.66;;;8.97;100.00
60976;BME280;46849;48.154;17.042;2022-11-13T11:24:47;100118.00;;;9.89;95.92
60976;BME280;46849;48.154;17.042;2022-11-13T11:27:55;100127.22;;;9.56;93.94
60976;BME280;46849;48.154;17.042;2022-11-13T11:31:14;100110.75;;;9.54;96.91
60976;BME280;46849;48.154;17.042;2022-11-13T11:34:34;100102.56;;;9.20;98.68
60976;BME280;46849;48.154;17.042;2022-11-13T11:38:17;100099.09;;;10.40;95.98
60976;BME280;46849;48.154;17.042;2022-11-13T11:41:39;100102.63;;;9.60;93.89
60976;BME280;46849;48.154;17.042;2022-11-13T11:45:26;100092.47;;;10.13;91.97
60976;BME280;46849;48.154;17.042;2022-11-13T11:48:33;100083.47;;;10.38;94.30
60976;BME280;46849;48.154;17.042;2022-11-13T12:02:27;100074.78;;;12.31;79.58
60976;BME280;46849;48.154;17.042;2022-11-13T12:07:04;100074.47;;;12.03;80.22
60976;BME280;46849;48.154;17.042;2022-11-13T12:09:52;100063.69;;;13.20;76.93
60976;BME280;46849;48.154;17.042;2022-11-13T12:13:27;100058.25;;;13.23;74.46
60976;BME280;46849;48.154;17.042;2022-11-13T12:16:48;100056.25;;;13.72;72.64
60976;BME280;46849;48.154;17.042;2022-11-13T12:20:15;100051.06;;;13.99;71.50
60976;BME280;46849;48.154;17.042;2022-11-13T12:23:43;100049.75;;;13.17;72.98
60976;BME280;46849;48.154;17.042;2022-11-13T12:26:56;100043.28;;;13.83;70.68
60976;BME280;46849;48.154;17.042;2022-11-13T12:36:53;100049.06;;;12.68;74.86
60976;BME280;46849;48.154;17.042;2022-11-13T12:40:03;100034.94;;;12.55;74.83
60976;BME280;46849;48.154;17.042;2022-11-13T12:46:38;100022.03;;;12.02;76.77
60976;BME280;46849;48.154;17.042;2022-11-13T12:49:42;100024.22;;;13.20;73.40
60976;BME280;46849;48.154;17.042;2022-11-13T12:53:10;100023.91;;;12.48;73.53
60976;BME280;46849;48.154;17.042;2022-11-13T12:59:35;100019.53;;;13.39;71.07
60976;BME280;46849;48.154;17.042;2022-11-13T13:03:07;100007.88;;;13.87;68.61
60976;BME280;46849;48.154;17.042;2022-11-13T13:12:47;100004.25;;;13.01;70.87
60976;BME280;46849;48.154;17.042;2022-11-13T13:15:55;100013.63;;;13.36;71.81
60976;BME280;46849;48.154;17.042;2022-11-13T13:22:28;100007.78;;;12.54;72.88
60976;BME280;46849;48.154;17.042;2022-11-13T13:25:34;99992.75;;;13.47;71.33
60976;BME280;46849;48.154;17.042;2022-11-13T13:28:47;99991.25;;;12.52;73.34
60976;BME280;46849;48.154;17.042;2022-11-13T13:35:26;99989.78;;;12.32;75.01
60976;BME280;46849;48.154;17.042;2022-11-13T13:49:02;99974.41;;;13.46;70.88
60976;BME280;46849;48.154;17.042;2022-11-13T13:52:15;99969.91;;;12.42;74.15
60976;BME280;46849;48.154;17.042;2022-11-13T13:55:38;99975.34;;;12.39;74.03
60976;BME280;46849;48.154;17.042;2022-11-13T13:58:46;99969.38;;;12.52;74.51
60976;BME280;46849;48.154;17.042;2022-11-13T14:02:00;99970.06;;;13.01;72.78
60976;BME280;46849;48.154;17.042;2022-11-13T14:05:36;99977.13;;;12.06;74.84
60976;BME280;46849;48.154;17.042;2022-11-13T14:08:41;99974.41;;;11.76;77.43
60976;BME280;46849;48.154;17.042;2022-11-13T14:11:45;99972.13;;;12.34;75.54
60976;BME280;46849;48.154;17.042;2022-11-13T14:14:51;99973.41;;;12.27;75.67
60976;BME280;46849;48.154;17.042;2022-11-13T14:18:14;99966.19;;;11.98;75.33
60976;BME280;46849;48.154;17.042;2022-11-13T14:21:21;99965.19;;;12.33;75.24
60976;BME280;46849;48.154;17.042;2022-11-13T14:24:32;99969.78;;;12.60;73.60
60976;BME280;46849;48.154;17.042;2022-11-13T14:27:36;99965.66;;;11.75;75.78
60976;BME280;46849;48.154;17.042;2022-11-13T14:30:42;99970.69;;;11.96;77.36
60976;BME280;46849;48.154;17.042;2022-11-13T14:33:47;99961.13;;;12.11;79.10
60976;BME280;46849;48.154;17.042;2022-11-13T14:36:51;99950.19;;;11.20;81.86
60976;BME280;46849;48.154;17.042;2022-11-13T14:39:59;99952.16;;;10.99;82.63
60976;BME280;46849;48.154;17.042;2022-11-13T14:43:05;99959.38;;;10.41;85.27
60976;BME280;46849;48.154;17.042;2022-11-13T14:46:25;99954.56;;;11.20;85.47
60976;BME280;46849;48.154;17.042;2022-11-13T14:49:34;99950.13;;;11.04;84.25
60976;BME280;46849;48.154;17.042;2022-11-13T14:52:38;99944.22;;;10.65;87.43
60976;BME280;46849;48.154;17.042;2022-11-13T14:55:54;99952.31;;;10.23;89.74
60976;BME280;46849;48.154;17.042;2022-11-13T14:59:15;99944.03;;;10.33;87.88
60976;BME280;46849;48.154;17.042;2022-11-13T15:02:26;99941.47;;;9.94;94.05
60976;BME280;46849;48.154;17.042;2022-11-13T15:05:31;99940.97;;;9.86;91.63
60976;BME280;46849;48.154;17.042;2022-11-13T15:08:35;99941.56;;;10.10;95.61
60976;BME280;46849;48.154;17.042;2022-11-13T15:11:39;99933.91;;;10.25;89.70
60976;BME280;46849;48.154;17.042;2022-11-13T15:14:43;99939.44;;;10.19;94.31
60976;BME280;46849;48.154;17.042;2022-11-13T15:17:47;99935.50;;;10.10;92.61
60976;BME280;46849;48.154;17.042;2022-11-13T15:20:52;99943.50;;;10.07;93.81
60976;BME280;46849;48.154;17.042;2022-11-13T15:23:56;99935.25;;;9.39;96.89
60976;BME280;46849;48.154;17.042;2022-11-13T15:27:01;99929.19;;;9.77;95.07
60976;BME280;46849;48.154;17.042;2022-11-13T15:30:04;99938.56;;;9.43;97.30
60976;BME280;46849;48.154;17.042;2022-11-13T15:33:12;99931.97;;;9.34;100.00
60976;BME280;46849;48.154;17.042;2022-11-13T15:36:17;99927.88;;;9.28;99.59
60976;BME280;46849;48.154;17.042;2022-11-13T15:39:20;99926.59;;;9.37;99.15
60976;BME280;46849;48.154;17.042;2022-11-13T15:42:30;99926.72;;;9.74;100.00
60976;BME280;46849;48.154;17.042;2022-11-13T15:45:33;99926.75;;;9.53;95.72
60976;BME280;46849;48.154;17.042;2022-11-13T15:48:37;99921.25;;;10.16;98.97
60976;BME280;46849;48.154;17.042;2022-11-13T15:51:42;99921.47;;;10.11;97.54
60976;BME280;46849;48.154;17.042;2022-11-13T15:54:49;99922.31;;;10.49;95.09
60976;BME280;46849;48.154;17.042;2022-11-13T15:57:52;99924.41;;;10.59;94.74
60976;BME280;46849;48.154;17.042;2022-11-13T16:00:56;99922.66;;;9.86;95.32
60976;BME280;46849;48.154;17.042;2022-11-13T16:04:01;99925.25;;;9.86;94.49
60976;BME280;46849;48.154;17.042;2022-11-13T16:07:30;99920.81;;;9.88;97.66
60976;BME280;46849;48.154;17.042;2022-11-13T16:10:34;99922.66;;;9.67;96.96
60976;BME280;46849;48.154;17.042;2022-11-13T16:13:38;99924.97;;;9.92;96.81
60976;BME280;46849;48.154;17.042;2022-11-13T16:16:40;99926.13;;;9.67;95.78
60976;BME280;46849;48.154;17.042;2022-11-13T16:19:50;99920.75;;;9.51;99.94
60976;BME280;46849;48.154;17.042;2022-11-13T16:22:54;99923.47;;;9.29;99.23
60976;BME280;46849;48.154;17.042;2022-11-13T16:25:57;99922.78;;;9.25;97.05
60976;BME280;46849;48.154;17.042;2022-11-13T16:29:00;99922.25;;;8.97;100.00
60976;BME280;46849;48.154;17.042;2022-11-13T16:32:04;99929.88;;;9.02;100.00
60976;BME280;46849;48.154;17.042;2022-11-13T16:35:17;99920.97;;;9.66;100.00
60976;BME280;46849;48.154;17.042;2022-11-13T16:38:21;99923.66;;;9.83;98.05
60976;BME280;46849;48.154;17.042;2022-11-13T16:41:24;99924.59;;;10.19;96.88
60976;BME280;46849;48.154;17.042;2022-11-13T16:44:28;99920.47;;;9.77;96.54
60976;BME280;46849;48.154;17.042;2022-11-13T16:47:33;99923.31;;;9.53;100.00
60976;BME280;46849;48.154;17.042;2022-11-13T16:50:38;99924.69;;;9.79;100.00
60976;BME280;46849;48.154;17.042;2022-11-13T16:53:42;99917.84;;;9.38;100.00
60976;BME280;46849;48.154;17.042;2022-11-13T16:56:46;99924.09;;;9.74;100.00
60976;BME280;46849;48.154;17.042;2022-11-13T16:59:50;99923.88;;;10.16;99.97
60976;BME280;46849;48.154;17.042;2022-11-13T17:02:54;99913.41;;;10.16;97.77
60976;BME280;46849;48.154;17.042;2022-11-13T17:05:57;99911.06;;;9.92;99.15
60976;BME280;46849;48.154;17.042;2022-11-13T17:09:02;99913.59;;;9.93;97.51
60976;BME280;46849;48.154;17.042;2022-11-13T17:12:08;99914.50;;;9.15;99.39